Time;durP1;ratioP1;P1;durP2;ratioP2;P2;SDS_P1;SDS_P2;PMS_P1;PMS_P2;Temp;Humidity;BMP_temperature;BMP_pressure;BME280_temperature;BME280_humidity;BME280_pressure;Samples;Min_cycle;Max_cycle;Signal;HPM_P1;HPM_P2
2023/01/18 00:00:15;;;;;;;1.40;1.30;;;2.60;99.90;;;;;;5045043;28;20477;-74
2023/01/18 00:02:45;;;;;;;1.33;1.10;;;2.70;99.90;;;;;;5052361;28;20493;-73
2023/01/18 00:05:13;;;;;;;2.33;1.70;;;2.70;99.90;;;;;;5046562;28;20811;-73
2023/01/18 00:07:40;;;;;;;4.93;1.63;;;2.70;99.90;;;;;;5055421;28;20547;-74
2023/01/18 00:10:08;;;;;;;2.67;1.73;;;2.70;99.90;;;;;;5051690;28;20575;-73
2023/01/18 00:12:36;;;;;;;2.50;1.83;;;2.80;99.90;;;;;;5052085;28;20866;-73
2023/01/18 00:15:05;;;;;;;2.37;1.60;;;2.80;99.90;;;;;;5057847;28;20497;-73
2023/01/18 00:17:32;;;;;;;1.70;1.57;;;2.80;99.90;;;;;;5046804;28;20468;-73
2023/01/18 00:20:02;;;;;;;2.23;1.73;;;2.80;99.90;;;;;;5053756;28;20492;-73
2023/01/18 00:22:32;;;;;;;2.00;1.13;;;2.90;99.90;;;;;;5052464;28;20583;-74
2023/01/18 00:24:59;;;;;;;2.30;1.90;;;2.90;99.90;;;;;;5051857;28;20775;-73
2023/01/18 00:27:26;;;;;;;2.83;1.70;;;2.80;99.90;;;;;;5050286;28;20960;-73
2023/01/18 00:29:54;;;;;;;1.50;1.33;;;2.90;99.90;;;;;;5047125;28;20535;-74
2023/01/18 00:32:21;;;;;;;1.80;1.13;;;2.90;99.90;;;;;;5055083;28;20547;-73
2023/01/18 00:34:48;;;;;;;2.50;2.30;;;2.90;99.90;;;;;;5050797;28;20518;-73
2023/01/18 00:37:14;;;;;;;2.27;1.67;;;2.90;99.90;;;;;;5051268;28;20483;-73
2023/01/18 00:39:41;;;;;;;1.63;1.10;;;2.90;99.90;;;;;;5048435;28;20472;-74
2023/01/18 00:44:54;;;;;;;1.30;0.77;;;3.00;99.90;;;;;;5050671;28;20435;-74
2023/01/18 00:47:21;;;;;;;1.90;1.00;;;3.00;99.90;;;;;;5052545;28;20469;-73
2023/01/18 00:49:48;;;;;;;2.47;0.90;;;3.00;99.90;;;;;;5052591;28;20521;-74
2023/01/18 00:52:15;;;;;;;2.20;1.50;;;3.00;99.90;;;;;;5050955;28;20496;-73
2023/01/18 00:54:41;;;;;;;1.57;1.17;;;3.00;99.90;;;;;;5047227;28;20960;-73
2023/01/18 00:57:11;;;;;;;3.40;1.70;;;3.00;99.90;;;;;;5054397;28;20816;-73
2023/01/18 00:59:38;;;;;;;6.63;1.60;;;3.00;99.90;;;;;;5046140;28;20893;-73
2023/01/18 01:02:06;;;;;;;6.20;1.77;;;2.90;99.90;;;;;;5050208;28;20572;-73
2023/01/18 01:07:21;;;;;;;1.50;0.90;;;3.00;99.90;;;;;;5051287;28;20942;-74
2023/01/18 01:09:48;;;;;;;2.33;0.80;;;3.00;99.90;;;;;;5050800;28;21020;-74
2023/01/18 01:26:05;;;;;;;1.07;0.97;;;2.80;99.90;;;;;;5052342;28;20483;-74
2023/01/18 01:28:34;;;;;;;2.33;1.33;;;2.70;99.90;;;;;;5048251;28;20468;-74
2023/01/18 01:31:02;;;;;;;2.47;1.20;;;2.70;99.90;;;;;;5054540;28;20484;-73
2023/01/18 01:33:36;;;;;;;2.57;0.90;;;2.70;99.90;;;;;;5044008;28;20546;-73
2023/01/18 01:36:07;;;;;;;2.33;1.13;;;2.70;99.90;;;;;;5045014;28;20492;-74
2023/01/18 01:38:35;;;;;;;1.17;1.00;;;2.60;99.90;;;;;;5046358;28;20905;-73
2023/01/18 01:41:04;;;;;;;1.70;1.53;;;2.60;99.90;;;;;;5046025;28;20481;-73
2023/01/18 01:43:46;;;;;;;2.00;0.90;;;2.50;99.90;;;;;;5048513;28;20448;-74
2023/01/18 01:46:19;;;;;;;0.70;0.70;;;2.40;99.90;;;;;;5055094;28;20480;-73
2023/01/18 01:48:48;;;;;;;1.53;1.07;;;2.40;99.90;;;;;;5039755;28;20532;-73
2023/01/18 01:51:16;;;;;;;1.53;1.00;;;2.30;99.90;;;;;;5055698;28;21057;-74
2023/01/18 01:53:44;;;;;;;1.97;1.83;;;2.30;99.90;;;;;;5043005;28;20492;-73
2023/01/18 01:56:12;;;;;;;1.13;1.03;;;2.20;99.90;;;;;;5053820;28;20460;-73
2023/01/18 01:58:40;;;;;;;1.70;1.03;;;2.20;99.90;;;;;;5047308;28;20929;-73
2023/01/18 02:01:08;;;;;;;2.23;1.80;;;2.20;99.90;;;;;;5055011;28;20547;-73
2023/01/18 02:03:38;;;;;;;2.80;1.00;;;2.30;99.90;;;;;;5049090;28;20453;-76
2023/01/18 02:06:15;;;;;;;2.30;1.40;;;2.20;99.90;;;;;;5050093;28;20496;-76
2023/01/18 02:08:46;;;;;;;1.53;1.13;;;2.20;99.90;;;;;;5057996;28;20467;-76
2023/01/18 02:11:15;;;;;;;3.17;1.43;;;2.20;99.90;;;;;;5055532;28;20564;-76
2023/01/18 02:13:42;;;;;;;1.00;0.90;;;2.20;99.90;;;;;;5059129;28;20799;-76
2023/01/18 02:16:17;;;;;;;1.10;0.93;;;2.10;99.90;;;;;;5051521;28;20492;-74
2023/01/18 02:18:54;;;;;;;1.23;1.00;;;2.00;99.90;;;;;;5054092;28;20471;-74
2023/01/18 02:21:29;;;;;;;1.20;1.00;;;2.00;99.90;;;;;;5044533;28;20477;-74
2023/01/18 02:24:29;;;;;;;1.20;1.00;;;1.90;99.90;;;;;;5052028;28;20499;-74
2023/01/18 02:27:07;;;;;;;1.40;1.27;;;1.90;99.90;;;;;;5020613;28;20481;-74
2023/01/18 02:30:01;;;;;;;2.30;1.57;;;1.90;99.90;;;;;;5047844;28;20517;-74
2023/01/18 02:32:56;;;;;;;1.53;1.27;;;1.90;99.90;;;;;;5047881;28;20880;-74
2023/01/18 02:35:32;;;;;;;6.47;1.70;;;1.80;99.90;;;;;;5046832;28;20496;-74
2023/01/18 02:38:06;;;;;;;1.37;1.27;;;1.80;99.90;;;;;;5056986;28;20498;-74
2023/01/18 02:40:43;;;;;;;1.27;1.17;;;1.70;99.90;;;;;;5055317;28;20886;-74
2023/01/18 02:48:46;;;;;;;2.03;1.47;;;1.60;99.90;;;;;;5048307;28;20467;-74
2023/01/18 02:51:13;;;;;;;1.70;1.07;;;1.60;99.90;;;;;;5050890;28;20527;-74
2023/01/18 02:53:46;;;;;;;2.60;1.33;;;1.60;99.90;;;;;;5048108;28;20525;-74
2023/01/18 02:56:16;;;;;;;1.33;1.23;;;1.50;99.90;;;;;;5050175;28;20491;-74
2023/01/18 02:58:47;;;;;;;1.67;0.93;;;1.60;99.90;;;;;;5049242;28;20543;-74
2023/01/18 03:01:25;;;;;;;3.57;1.43;;;1.60;99.90;;;;;;5057854;28;20504;-74
2023/01/18 03:03:57;;;;;;;1.67;1.53;;;1.70;99.90;;;;;;5050571;28;20975;-74
2023/01/18 03:06:28;;;;;;;1.97;1.47;;;1.70;99.90;;;;;;5056780;28;20471;-74
2023/01/18 03:08:56;;;;;;;2.33;1.73;;;1.60;99.90;;;;;;5049175;28;20521;-74
2023/01/18 03:11:32;;;;;;;1.77;0.97;;;1.50;99.90;;;;;;5053435;28;20579;-74
2023/01/18 03:14:12;;;;;;;1.73;1.40;;;1.50;99.90;;;;;;5051955;28;20531;-74
2023/01/18 03:16:57;;;;;;;2.93;1.83;;;1.40;99.90;;;;;;5056298;28;20485;-74
2023/01/18 03:23:36;;;;;;;0.83;0.83;;;1.40;99.90;;;;;;5054282;28;20482;-74
2023/01/18 03:25:06;;;;;;;1.40;1.30;;;1.40;99.90;;;;;;5057876;28;20920;-74
2023/01/18 03:35:53;;;;;;;2.73;1.10;;;1.50;99.90;;;;;;5052354;28;20436;-74
2023/01/18 03:38:21;;;;;;;1.30;1.20;;;1.50;99.90;;;;;;5053933;28;20497;-74
2023/01/18 03:40:48;;;;;;;1.40;1.30;;;1.50;99.90;;;;;;5059994;28;20479;-74
2023/01/18 03:43:19;;;;;;;1.33;1.23;;;1.40;99.90;;;;;;5048940;28;20476;-74
2023/01/18 03:45:49;;;;;;;1.37;0.90;;;1.50;99.90;;;;;;5050502;28;20533;-74
2023/01/18 03:48:17;;;;;;;3.23;1.30;;;1.50;99.90;;;;;;5050255;28;20842;-74
2023/01/18 03:50:55;;;;;;;2.10;1.60;;;1.50;99.90;;;;;;5045076;28;20523;-74
2023/01/18 03:53:28;;;;;;;1.13;1.03;;;1.50;99.90;;;;;;5057770;28;21020;-74
2023/01/18 03:55:59;;;;;;;2.37;1.50;;;1.50;99.90;;;;;;5050911;28;20547;-74
2023/01/18 03:58:32;;;;;;;3.17;1.53;;;1.50;99.90;;;;;;5056714;28;20480;-74
2023/01/18 04:01:02;;;;;;;2.77;1.10;;;1.50;99.90;;;;;;5056225;28;20824;-74
2023/01/18 04:03:40;;;;;;;1.97;1.77;;;1.40;99.90;;;;;;5054164;28;20497;-74
2023/01/18 04:06:10;;;;;;;1.50;1.30;;;1.30;99.90;;;;;;5051377;28;20468;-74
2023/01/18 04:08:40;;;;;;;5.60;2.07;;;1.30;99.90;;;;;;5053592;28;20465;-74
2023/01/18 04:11:07;;;;;;;1.70;1.60;;;1.30;99.90;;;;;;5050912;28;20576;-74
2023/01/18 04:13:34;;;;;;;2.17;1.20;;;1.30;99.90;;;;;;5055659;28;20988;-74
2023/01/18 04:16:00;;;;;;;1.13;1.03;;;1.20;99.90;;;;;;5045653;28;20524;-74
2023/01/18 04:18:27;;;;;;;2.43;1.10;;;1.20;99.90;;;;;;5046228;28;20481;-74
2023/01/18 04:20:56;;;;;;;2.17;1.90;;;1.10;99.90;;;;;;5051494;28;20461;-74
2023/01/18 04:23:23;;;;;;;1.57;1.20;;;1.10;99.90;;;;;;5049389;28;20523;-74
2023/01/18 04:25:53;;;;;;;2.00;1.50;;;1.10;99.90;;;;;;5051628;28;20472;-74
2023/01/18 04:28:25;;;;;;;1.53;1.43;;;1.10;99.90;;;;;;5048465;28;20734;-74
2023/01/18 04:30:52;;;;;;;2.20;1.33;;;1.20;99.90;;;;;;5053260;28;20484;-74
2023/01/18 04:33:20;;;;;;;3.23;1.50;;;1.20;99.90;;;;;;5048493;28;20453;-74
2023/01/18 04:35:48;;;;;;;1.73;1.23;;;1.30;99.90;;;;;;5056225;28;20494;-74
2023/01/18 04:38:16;;;;;;;3.00;1.40;;;1.40;99.90;;;;;;5049187;28;20556;-74
2023/01/18 04:40:43;;;;;;;3.10;1.43;;;1.30;99.90;;;;;;5048760;28;20484;-74
2023/01/18 04:43:10;;;;;;;2.57;1.60;;;1.20;99.90;;;;;;5046504;28;20477;-74
2023/01/18 04:45:37;;;;;;;1.87;1.33;;;1.20;99.90;;;;;;5049844;28;21171;-74
2023/01/18 04:48:06;;;;;;;2.07;1.20;;;1.10;99.90;;;;;;5046113;28;20989;-74
2023/01/18 04:50:33;;;;;;;2.30;1.80;;;1.20;99.90;;;;;;5053805;28;20583;-74
2023/01/18 04:53:00;;;;;;;3.23;1.50;;;1.30;99.90;;;;;;5049368;28;20949;-74
2023/01/18 04:58:12;;;;;;;3.10;1.50;;;1.40;99.90;;;;;;5049975;28;20810;-74
2023/01/18 05:00:39;;;;;;;1.87;1.70;;;1.40;99.90;;;;;;5051998;28;20485;-74
2023/01/18 05:03:07;;;;;;;1.20;1.10;;;1.30;99.90;;;;;;5046258;28;20468;-73
2023/01/18 05:05:34;;;;;;;3.80;1.43;;;1.30;99.90;;;;;;5050038;28;20541;-74
2023/01/18 05:08:03;;;;;;;5.17;2.17;;;1.30;99.90;;;;;;5047974;28;20555;-74
2023/01/18 05:10:32;;;;;;;3.50;2.03;;;1.30;99.90;;;;;;5050402;28;20797;-74
2023/01/18 05:13:01;;;;;;;3.90;1.37;;;1.20;99.90;;;;;;5050662;28;20558;-74
2023/01/18 05:15:28;;;;;;;1.57;1.30;;;1.10;99.90;;;;;;5050795;28;20475;-74
2023/01/18 05:17:55;;;;;;;4.37;2.07;;;1.00;99.90;;;;;;5050146;28;20556;-74
2023/01/18 05:20:22;;;;;;;2.53;1.70;;;1.00;99.90;;;;;;5056262;28;20509;-74
2023/01/18 05:22:57;;;;;;;1.70;1.47;;;1.00;99.90;;;;;;5049477;28;21046;-74
2023/01/18 05:25:24;;;;;;;4.00;1.83;;;1.00;99.90;;;;;;5053377;28;20451;-74
2023/01/18 05:27:52;;;;;;;3.97;2.90;;;1.00;99.90;;;;;;5052587;28;20491;-74
2023/01/18 05:30:19;;;;;;;3.57;2.73;;;1.10;99.90;;;;;;5051829;28;20521;-74
2023/01/18 05:32:46;;;;;;;3.73;3.23;;;1.10;99.90;;;;;;5048276;28;20493;-74
2023/01/18 05:35:13;;;;;;;6.90;4.27;;;1.20;99.90;;;;;;5044229;28;20935;-74
2023/01/18 05:37:40;;;;;;;10.80;7.43;;;1.10;99.90;;;;;;5045422;28;20455;-74
2023/01/18 05:40:08;;;;;;;7.20;4.73;;;1.10;99.90;;;;;;5046497;28;20559;-74
2023/01/18 05:42:35;;;;;;;2.83;2.40;;;1.10;99.90;;;;;;5052291;28;20460;-74
2023/01/18 05:45:04;;;;;;;1.67;1.53;;;1.10;99.90;;;;;;5051367;28;20495;-74
2023/01/18 05:47:31;;;;;;;2.50;2.17;;;1.10;99.90;;;;;;5051661;28;20957;-74
2023/01/18 05:49:59;;;;;;;2.03;1.83;;;1.00;99.90;;;;;;5053362;28;20471;-74
2023/01/18 05:52:26;;;;;;;2.00;1.83;;;1.00;99.90;;;;;;5056237;28;20494;-74
2023/01/18 05:54:55;;;;;;;1.63;1.40;;;0.90;99.90;;;;;;5054081;28;20555;-74
2023/01/18 05:57:24;;;;;;;1.93;1.83;;;0.90;99.90;;;;;;5056539;28;20471;-74
2023/01/18 05:59:51;;;;;;;3.40;1.87;;;0.90;99.90;;;;;;5058289;28;20517;-74
2023/01/18 06:02:19;;;;;;;3.07;1.67;;;0.90;99.90;;;;;;5058204;28;20452;-74
2023/01/18 06:04:47;;;;;;;1.97;1.53;;;1.00;99.90;;;;;;5053153;28;20500;-74
2023/01/18 06:07:16;;;;;;;1.77;1.47;;;1.00;99.90;;;;;;5057148;28;20471;-74
2023/01/18 06:09:47;;;;;;;2.60;1.60;;;1.10;99.90;;;;;;5054016;28;20468;-74
2023/01/18 06:12:17;;;;;;;2.20;2.00;;;1.10;99.90;;;;;;5047197;28;20583;-74
2023/01/18 06:14:44;;;;;;;2.30;1.90;;;1.20;99.90;;;;;;5046596;28;20456;-74
2023/01/18 06:17:12;;;;;;;1.73;1.63;;;1.20;99.90;;;;;;5062019;28;20480;-74
2023/01/18 06:19:46;;;;;;;3.80;2.13;;;1.20;99.90;;;;;;5053969;28;20940;-74
2023/01/18 06:22:14;;;;;;;2.53;1.77;;;1.20;99.90;;;;;;5049105;28;20577;-74
2023/01/18 06:24:44;;;;;;;2.27;1.30;;;1.30;99.90;;;;;;5050395;28;20453;-74
2023/01/18 06:27:13;;;;;;;2.77;1.53;;;1.40;99.90;;;;;;5052027;28;21363;-74
2023/01/18 06:29:40;;;;;;;1.67;1.27;;;1.40;99.90;;;;;;5050030;28;20587;-74
2023/01/18 06:32:07;;;;;;;2.33;2.13;;;1.40;99.90;;;;;;5049614;28;20516;-73
2023/01/18 06:34:35;;;;;;;2.33;1.40;;;1.40;99.90;;;;;;5055114;28;20496;-74
2023/01/18 06:37:04;;;;;;;1.50;1.30;;;1.40;99.90;;;;;;5055259;28;20637;-74
2023/01/18 06:39:31;;;;;;;2.07;1.87;;;1.50;99.90;;;;;;5044697;28;20495;-74
2023/01/18 06:41:58;;;;;;;1.70;1.60;;;1.50;99.90;;;;;;5045613;28;20489;-74
2023/01/18 06:44:25;;;;;;;4.60;1.77;;;1.60;99.90;;;;;;5051668;28;20488;-74
2023/01/18 06:46:52;;;;;;;3.30;2.90;;;1.60;99.90;;;;;;5051810;28;21081;-74
2023/01/18 06:49:18;;;;;;;8.20;5.73;;;1.60;99.90;;;;;;5049576;28;20549;-73
2023/01/18 06:51:46;;;;;;;2.67;2.47;;;1.60;99.90;;;;;;5049250;28;20512;-73
2023/01/18 06:54:15;;;;;;;1.40;1.30;;;1.60;99.90;;;;;;5046038;28;20498;-73
2023/01/18 06:56:42;;;;;;;2.87;2.60;;;1.60;99.90;;;;;;5049271;28;20801;-73
2023/01/18 06:59:12;;;;;;;10.10;8.83;;;1.60;99.90;;;;;;5050744;28;20497;-73
2023/01/18 07:01:39;;;;;;;20.17;13.60;;;1.60;99.90;;;;;;5055319;28;20485;-73
2023/01/18 07:04:06;;;;;;;12.53;9.13;;;1.60;99.90;;;;;;5049475;28;20937;-73
2023/01/18 07:06:32;;;;;;;4.93;3.70;;;1.60;99.90;;;;;;5051507;28;20541;-73
2023/01/18 07:09:02;;;;;;;5.03;3.97;;;1.60;99.90;;;;;;5059307;28;20975;-73
2023/01/18 07:11:35;;;;;;;11.63;5.37;;;1.70;99.90;;;;;;5052084;28;20495;-73
2023/01/18 07:14:03;;;;;;;10.27;5.97;;;1.70;99.90;;;;;;5050772;28;20525;-73
2023/01/18 07:16:31;;;;;;;17.63;11.00;;;1.80;99.90;;;;;;5059210;28;20564;-74
2023/01/18 07:19:02;;;;;;;8.43;4.70;;;1.80;99.90;;;;;;5045439;28;20482;-74
2023/01/18 07:21:30;;;;;;;12.33;7.47;;;1.90;99.90;;;;;;5050663;28;20576;-73
2023/01/18 07:23:57;;;;;;;4.50;3.07;;;1.80;99.90;;;;;;5054599;28;20464;-74
2023/01/18 07:26:32;;;;;;;5.30;3.40;;;1.80;99.90;;;;;;5051904;28;20963;-74
2023/01/18 07:29:00;;;;;;;4.63;3.03;;;1.80;99.90;;;;;;5058194;28;20916;-74
2023/01/18 07:31:27;;;;;;;3.13;2.87;;;1.90;99.90;;;;;;5054558;28;20545;-74
2023/01/18 07:33:54;;;;;;;2.17;1.87;;;1.90;99.90;;;;;;5055045;28;20563;-74
2023/01/18 07:36:24;;;;;;;8.03;3.33;;;1.80;99.90;;;;;;5053377;28;20595;-74
2023/01/18 07:38:53;;;;;;;2.33;2.10;;;1.90;99.90;;;;;;5049728;28;20933;-74
2023/01/18 07:41:24;;;;;;;3.73;1.97;;;2.00;99.90;;;;;;5060987;28;20494;-73
2023/01/18 07:43:54;;;;;;;3.47;2.33;;;2.00;99.90;;;;;;5055262;28;20465;-73
2023/01/18 07:46:24;;;;;;;2.47;1.93;;;2.00;99.90;;;;;;5060163;28;20460;-74
2023/01/18 07:48:52;;;;;;;2.77;1.70;;;2.00;99.90;;;;;;5055837;28;20982;-74
2023/01/18 07:51:21;;;;;;;3.27;2.10;;;2.00;99.90;;;;;;5057915;28;20484;-74
2023/01/18 07:53:51;;;;;;;2.73;1.90;;;2.10;99.90;;;;;;5063840;28;20469;-74
2023/01/18 07:56:19;;;;;;;3.23;2.27;;;2.10;99.90;;;;;;5057321;28;20460;-74
2023/01/18 07:58:46;;;;;;;2.37;2.13;;;2.20;99.90;;;;;;5058164;28;20493;-74
2023/01/18 08:01:14;;;;;;;3.07;2.20;;;2.20;99.90;;;;;;5051303;28;20481;-74
2023/01/18 08:03:46;;;;;;;3.73;3.00;;;2.30;99.90;;;;;;5063968;28;20917;-74
2023/01/18 08:06:15;;;;;;;2.37;2.17;;;2.30;99.90;;;;;;5056051;28;20463;-74
2023/01/18 08:08:43;;;;;;;2.43;2.23;;;2.30;99.90;;;;;;5059893;28;21078;-74
2023/01/18 08:11:10;;;;;;;1.63;1.53;;;2.40;99.90;;;;;;5060999;28;20492;-74
2023/01/18 08:13:38;;;;;;;2.30;2.10;;;2.40;99.90;;;;;;5057829;28;20493;-74
2023/01/18 08:16:08;;;;;;;4.40;2.13;;;2.50;99.90;;;;;;5050737;28;20905;-74
2023/01/18 08:18:40;;;;;;;2.70;2.50;;;2.40;99.90;;;;;;5057472;28;20467;-74
2023/01/18 08:21:19;;;;;;;3.40;2.17;;;2.40;99.90;;;;;;5052685;28;20490;-73
2023/01/18 08:23:45;;;;;;;4.07;3.07;;;2.50;99.90;;;;;;5057138;28;20809;-74
2023/01/18 08:26:14;;;;;;;3.53;1.57;;;2.50;99.90;;;;;;5056172;28;20481;-74
2023/01/18 08:28:43;;;;;;;3.23;1.80;;;2.50;99.90;;;;;;5061843;28;20854;-74
2023/01/18 08:31:13;;;;;;;4.60;1.90;;;2.40;99.90;;;;;;5061946;28;20472;-73
2023/01/18 08:33:41;;;;;;;2.13;1.10;;;2.40;99.90;;;;;;5062270;28;20460;-74
2023/01/18 08:36:15;;;;;;;2.23;1.67;;;2.40;99.90;;;;;;5062624;28;20468;-74
2023/01/18 08:38:42;;;;;;;1.50;1.30;;;2.50;99.90;;;;;;5055694;28;20459;-74
2023/01/18 08:41:09;;;;;;;4.07;1.10;;;2.50;99.90;;;;;;5058121;28;20480;-74
2023/01/18 08:43:46;;;;;;;5.37;2.73;;;2.40;99.90;;;;;;5064751;28;20522;-74
2023/01/18 08:46:16;;;;;;;11.80;8.33;;;2.50;99.90;;;;;;5054667;28;20452;-74
2023/01/18 08:48:46;;;;;;;9.60;6.57;;;2.50;99.90;;;;;;5056713;28;20466;-74
2023/01/18 08:51:16;;;;;;;16.30;8.53;;;2.40;99.90;;;;;;5063968;28;20452;-74
2023/01/18 08:53:43;;;;;;;4.70;2.80;;;2.40;99.90;;;;;;5061292;28;20880;-74
2023/01/18 08:56:11;;;;;;;5.20;3.20;;;2.40;99.90;;;;;;5050049;28;20623;-74
2023/01/18 08:58:38;;;;;;;3.90;2.80;;;2.50;99.90;;;;;;5064044;28;20468;-74
2023/01/18 09:01:06;;;;;;;15.73;3.60;;;2.50;99.90;;;;;;5062864;28;20903;-74
2023/01/18 09:03:33;;;;;;;6.10;2.53;;;2.40;99.90;;;;;;5062598;28;20480;-74
2023/01/18 09:06:00;;;;;;;2.67;1.60;;;2.50;99.90;;;;;;5060665;28;20849;-74
2023/01/18 09:08:30;;;;;;;1.02;0.90;;;2.60;99.90;;;;;;5063662;28;20452;-74
2023/01/18 09:11:04;;;;;;;2.00;1.10;;;2.70;99.90;;;;;;5062212;28;20202;-74
2023/01/18 09:13:32;;;;;;;1.40;0.73;;;2.90;99.90;;;;;;5062605;28;20511;-74
2023/01/18 09:15:59;;;;;;;3.43;3.07;;;3.00;99.90;;;;;;5061615;28;20514;-74
2023/01/18 09:18:26;;;;;;;3.07;1.20;;;3.10;99.90;;;;;;5054966;28;20488;-74
2023/01/18 09:20:54;;;;;;;1.70;1.13;;;3.10;99.90;;;;;;5059265;28;20487;-74
2023/01/18 09:23:23;;;;;;;1.33;0.87;;;3.20;99.90;;;;;;5056403;28;20468;-74
2023/01/18 09:26:06;;;;;;;1.87;1.20;;;3.30;99.90;;;;;;5059550;28;20459;-74
2023/01/18 09:28:33;;;;;;;0.80;0.73;;;3.40;99.90;;;;;;5062719;28;20487;-74
2023/01/18 09:31:01;;;;;;;0.93;0.83;;;3.50;99.90;;;;;;5056384;28;20538;-74
2023/01/18 09:33:29;;;;;;;4.30;1.10;;;3.40;99.90;;;;;;5059368;28;20512;-74
2023/01/18 09:35:58;;;;;;;1.27;0.70;;;3.50;99.90;;;;;;5060837;28;20591;-74
2023/01/18 09:38:25;;;;;;;2.40;0.80;;;3.60;99.90;;;;;;5057101;28;20559;-74
2023/01/18 09:40:53;;;;;;;1.77;0.70;;;3.70;99.90;;;;;;5062611;28;20488;-74
2023/01/18 09:43:28;;;;;;;2.30;0.63;;;3.70;99.90;;;;;;5064199;28;20451;-74
2023/01/18 09:46:00;;;;;;;0.80;0.70;;;3.70;99.90;;;;;;5056106;28;20487;-74
2023/01/18 09:48:36;;;;;;;1.23;0.80;;;3.70;99.90;;;;;;5051896;28;20476;-74
2023/01/18 09:51:10;;;;;;;1.03;0.63;;;3.60;99.90;;;;;;5054031;28;20457;-74
2023/01/18 09:53:52;;;;;;;0.70;0.57;;;3.60;99.90;;;;;;5052236;28;20577;-74
2023/01/18 09:56:24;;;;;;;0.83;0.70;;;3.60;99.90;;;;;;5055384;28;20491;-74
2023/01/18 09:59:04;;;;;;;0.50;0.40;;;3.60;99.90;;;;;;5058146;28;20440;-74
2023/01/18 10:01:33;;;;;;;0.73;0.47;;;3.60;99.90;;;;;;5058468;28;20464;-74
2023/01/18 10:04:06;;;;;;;0.60;0.60;;;3.60;99.90;;;;;;5058197;28;20790;-74
2023/01/18 10:06:42;;;;;;;3.43;0.40;;;3.50;99.90;;;;;;5055049;28;20464;-75
2023/01/18 10:09:17;;;;;;;0.40;0.40;;;3.40;99.90;;;;;;5054268;28;20456;-73
2023/01/18 10:11:48;;;;;;;0.57;0.40;;;3.50;99.90;;;;;;5059179;28;20650;-73
2023/01/18 10:14:22;;;;;;;0.40;0.40;;;3.50;99.90;;;;;;5046064;28;20542;-73
2023/01/18 10:16:55;;;;;;;0.60;0.40;;;3.60;99.90;;;;;;5055553;28;20923;-73
2023/01/18 10:19:27;;;;;;;0.40;0.30;;;3.60;99.90;;;;;;5048465;28;20494;-76
2023/01/18 10:22:03;;;;;;;0.40;0.30;;;3.50;99.90;;;;;;5052896;28;20595;-73
2023/01/18 10:24:39;;;;;;;0.40;0.40;;;3.60;99.90;;;;;;5054906;28;20822;-73
2023/01/18 10:27:26;;;;;;;0.40;0.40;;;3.60;99.90;;;;;;5055343;28;20730;-73
2023/01/18 10:30:10;;;;;;;0.50;0.50;;;3.70;99.90;;;;;;5050943;28;20479;-73
2023/01/18 10:32:38;;;;;;;0.50;0.40;;;3.90;99.90;;;;;;5062259;28;20514;-73
2023/01/18 10:35:17;;;;;;;0.40;0.30;;;3.90;99.90;;;;;;5062515;28;20488;-73
2023/01/18 10:37:45;;;;;;;0.40;0.30;;;4.00;99.90;;;;;;5059958;28;20494;-73
2023/01/18 10:40:14;;;;;;;0.60;0.30;;;4.20;99.90;;;;;;5059100;28;20448;-73
2023/01/18 10:42:47;;;;;;;6.00;0.87;;;4.30;99.90;;;;;;5060703;28;20485;-73
2023/01/18 10:45:18;;;;;;;0.40;0.30;;;4.60;99.90;;;;;;5059894;28;20799;-73
2023/01/18 10:47:46;;;;;;;0.50;0.40;;;4.80;99.90;;;;;;5060178;28;20458;-75
2023/01/18 10:50:16;;;;;;;0.50;0.30;;;4.80;99.90;;;;;;5059036;28;20472;-74
2023/01/18 10:52:46;;;;;;;1.33;0.50;;;4.90;99.90;;;;;;5053439;28;20511;-74
2023/01/18 10:55:18;;;;;;;0.40;0.30;;;5.40;99.90;;;;;;5058031;28;20851;-74
2023/01/18 10:57:50;;;;;;;0.50;0.40;;;5.60;99.90;;;;;;5058040;28;20991;-74
2023/01/18 11:00:26;;;;;;;0.50;0.33;;;5.60;99.90;;;;;;5060254;28;20682;-74
2023/01/18 11:02:55;;;;;;;0.70;0.30;;;5.80;99.90;;;;;;5060915;28;20466;-76
2023/01/18 11:05:29;;;;;;;0.80;0.40;;;5.80;99.90;;;;;;5062089;28;20452;-76
2023/01/18 11:08:15;;;;;;;0.50;0.30;;;5.80;99.90;;;;;;5059991;28;20463;-76
2023/01/18 11:10:45;;;;;;;0.80;0.40;;;6.00;99.90;;;;;;5055613;28;20525;-76
2023/01/18 11:13:27;;;;;;;0.80;0.33;;;6.00;99.90;;;;;;5059256;28;20579;-76
2023/01/18 11:16:16;;;;;;;3.07;1.13;;;6.10;99.90;;;;;;5056701;28;20999;-76
2023/01/18 11:18:58;;;;;;;0.60;0.50;;;6.10;99.90;;;;;;5059353;28;20863;-76
2023/01/18 11:21:30;;;;;;;0.50;0.30;;;6.00;99.90;;;;;;5061131;28;20476;-76
2023/01/18 11:23:59;;;;;;;0.50;0.30;;;5.90;99.90;;;;;;5062892;28;20460;-74
2023/01/18 11:26:27;;;;;;;0.70;0.40;;;5.90;99.90;;;;;;5062356;28;20513;-74
2023/01/18 11:28:59;;;;;;;0.63;0.30;;;6.10;99.90;;;;;;5056108;28;20448;-74
2023/01/18 11:31:30;;;;;;;0.40;0.30;;;5.80;99.90;;;;;;5065274;28;20452;-74
2023/01/18 11:34:01;;;;;;;0.80;0.40;;;5.80;99.90;;;;;;5062641;28;21186;-74
2023/01/18 11:36:38;;;;;;;0.50;0.50;;;5.80;99.90;;;;;;5056020;28;20465;-74
2023/01/18 11:39:29;;;;;;;0.70;0.40;;;5.90;99.90;;;;;;5065195;28;20553;-74
2023/01/18 11:42:21;;;;;;;0.87;0.30;;;5.90;99.90;;;;;;5056858;28;21029;-76
2023/01/18 11:45:14;;;;;;;0.83;0.40;;;6.10;99.90;;;;;;5057180;28;20904;-76
2023/01/18 11:47:53;;;;;;;0.47;0.40;;;6.10;99.90;;;;;;5058434;28;20459;-74
2023/01/18 11:50:29;;;;;;;0.40;0.40;;;6.00;99.90;;;;;;5056875;28;20894;-74
2023/01/18 11:53:03;;;;;;;0.80;0.40;;;5.90;99.90;;;;;;5053153;28;20536;-74
2023/01/18 11:55:36;;;;;;;0.60;0.30;;;5.80;99.90;;;;;;5065162;28;20895;-74
2023/01/18 11:58:05;;;;;;;0.97;0.50;;;5.70;99.90;;;;;;5063458;28;20572;-75
2023/01/18 12:00:56;;;;;;;0.40;0.30;;;5.80;99.90;;;;;;5063070;28;20932;-74
2023/01/18 12:03:43;;;;;;;1.10;0.70;;;5.90;99.90;;;;;;5059322;28;20923;-75
2023/01/18 12:06:21;;;;;;;0.93;0.60;;;6.00;99.90;;;;;;5056056;28;20476;-75
2023/01/18 12:09:02;;;;;;;0.60;0.40;;;5.90;99.90;;;;;;5057305;28;20474;-75
2023/01/18 12:11:49;;;;;;;0.40;0.20;;;5.70;99.90;;;;;;5061611;28;20974;-75
2023/01/18 12:14:36;;;;;;;0.60;0.30;;;5.50;99.90;;;;;;5056660;28;20491;-74
2023/01/18 12:17:19;;;;;;;0.90;0.50;;;5.50;99.90;;;;;;5054701;28;20476;-77
2023/01/18 12:20:01;;;;;;;2.60;0.40;;;5.70;99.90;;;;;;5062966;28;20456;-77
2023/01/18 12:22:56;;;;;;;0.87;0.47;;;5.90;99.90;;;;;;5057128;28;20602;-77
2023/01/18 12:25:50;;;;;;;1.07;0.30;;;6.10;99.90;;;;;;5061371;28;20845;-77
2023/01/18 12:28:31;;;;;;;0.40;0.30;;;6.30;99.90;;;;;;5049957;28;20715;-77
2023/01/18 12:31:13;;;;;;;0.40;0.20;;;6.20;99.90;;;;;;5058913;28;20452;-77
2023/01/18 12:33:49;;;;;;;0.40;0.27;;;6.20;99.90;;;;;;5061102;28;20545;-77
2023/01/18 12:36:43;;;;;;;0.40;0.30;;;6.20;99.90;;;;;;5059226;28;20816;-77
2023/01/18 12:39:23;;;;;;;0.50;0.30;;;6.10;99.90;;;;;;5058669;28;20472;-77
2023/01/18 12:41:57;;;;;;;0.40;0.20;;;6.20;99.90;;;;;;5060917;28;20557;-76
2023/01/18 12:44:51;;;;;;;1.50;0.30;;;6.30;99.90;;;;;;5052451;28;20448;-76
2023/01/18 12:47:33;;;;;;;0.40;0.30;;;6.40;99.90;;;;;;5051204;28;20558;-76
2023/01/18 12:50:04;;;;;;;0.40;0.20;;;6.90;99.90;;;;;;5061735;28;20911;-76
2023/01/18 12:52:39;;;;;;;0.90;0.30;;;7.10;99.90;;;;;;5060485;28;20452;-77
2023/01/18 12:55:15;;;;;;;0.40;0.20;;;7.10;99.90;;;;;;5060600;28;20811;-76
2023/01/18 12:57:42;;;;;;;4.93;0.30;;;7.00;99.90;;;;;;5060713;28;20463;-76
2023/01/18 13:00:19;;;;;;;0.30;0.20;;;6.90;99.90;;;;;;5055107;28;20527;-76
2023/01/18 13:02:53;;;;;;;1.13;0.30;;;6.70;99.90;;;;;;5052525;28;20448;-76
2023/01/18 13:05:27;;;;;;;0.70;0.70;;;6.40;99.90;;;;;;5053580;28;20877;-76
2023/01/18 13:08:05;;;;;;;0.50;0.40;;;6.30;99.90;;;;;;5056843;28;20924;-76
2023/01/18 13:10:34;;;;;;;1.13;0.40;;;6.20;99.90;;;;;;5054636;28;21294;-76
2023/01/18 13:13:04;;;;;;;1.13;0.40;;;6.30;99.90;;;;;;5055014;28;20484;-76
2023/01/18 13:15:39;;;;;;;0.40;0.30;;;6.30;99.90;;;;;;5051160;28;20982;-77
2023/01/18 13:18:15;;;;;;;1.23;0.30;;;6.30;99.90;;;;;;5047433;28;20550;-76
2023/01/18 13:20:55;;;;;;;0.40;0.30;;;6.30;99.90;;;;;;5053984;28;20487;-76
2023/01/18 13:23:37;;;;;;;0.40;0.30;;;6.20;99.90;;;;;;5055017;28;20452;-76
2023/01/18 13:26:17;;;;;;;0.40;0.27;;;6.20;99.90;;;;;;5053434;28;20517;-76
2023/01/18 13:28:45;;;;;;;2.97;0.73;;;6.10;99.90;;;;;;5063471;28;20459;-76
2023/01/18 13:31:12;;;;;;;0.50;0.30;;;6.20;99.90;;;;;;5059880;28;20554;-76
2023/01/18 13:33:43;;;;;;;0.40;0.20;;;6.10;99.90;;;;;;5061235;28;20510;-76
2023/01/18 13:36:13;;;;;;;0.60;0.40;;;6.00;99.90;;;;;;5060391;28;20209;-77
2023/01/18 13:38:51;;;;;;;0.40;0.30;;;6.00;99.90;;;;;;5060368;28;20454;-77
2023/01/18 13:41:25;;;;;;;0.40;0.30;;;5.90;99.90;;;;;;5059032;28;20503;-76
2023/01/18 13:44:05;;;;;;;0.40;0.33;;;6.00;99.90;;;;;;5060772;28;20815;-77
2023/01/18 13:46:35;;;;;;;7.90;1.00;;;6.10;99.90;;;;;;5061927;28;20480;-75
2023/01/18 13:49:31;;;;;;;0.50;0.50;;;6.20;99.90;;;;;;5063343;28;20449;-76
2023/01/18 13:51:58;;;;;;;0.50;0.40;;;6.00;99.90;;;;;;5063951;28;20485;-75
2023/01/18 13:55:02;;;;;;;0.50;0.40;;;6.00;99.90;;;;;;5062106;28;20589;-75
2023/01/18 13:57:31;;;;;;;0.90;0.80;;;5.80;99.90;;;;;;5058715;28;21041;-75
2023/01/18 14:00:06;;;;;;;0.53;0.40;;;5.80;99.90;;;;;;5058497;28;20467;-75